createdAt,value
2022-10-28T00:01:09.776Z,87.91
2022-10-28T00:03:42.076Z,87.85
2022-10-28T00:06:14.716Z,87.80
2022-10-28T00:08:41.934Z,87.95
2022-10-28T00:11:14.162Z,87.81
2022-10-28T00:13:41.504Z,88.95
2022-10-28T00:16:14.256Z,89.35
2022-10-28T00:18:41.700Z,89.11
2022-10-28T00:21:12.895Z,88.89
2022-10-28T00:23:40.109Z,89.04
2022-10-28T00:26:19.232Z,89.21
2022-10-28T00:28:54.659Z,89.08
2022-10-28T00:31:23.927Z,89.06
2022-10-28T00:33:51.014Z,88.90
2022-10-28T00:36:25.408Z,88.71
2022-10-28T00:38:53.651Z,88.66
2022-10-28T00:41:23.847Z,88.94
2022-10-28T00:43:54.312Z,88.23
2022-10-28T00:46:44.683Z,88.08
2022-10-28T00:49:22.415Z,87.81
2022-10-28T00:51:54.117Z,87.99
2022-10-28T00:54:21.500Z,88.30
2022-10-28T00:56:51.664Z,88.50
2022-10-28T00:59:27.846Z,88.15
2022-10-28T01:01:55.011Z,87.33
2022-10-28T01:04:22.998Z,87.25
2022-10-28T01:06:51.260Z,87.12
2022-10-28T01:09:17.734Z,87.27
2022-10-28T01:11:48.857Z,86.97
2022-10-28T01:14:17.523Z,86.71
2022-10-28T01:16:57.205Z,87.66
2022-10-28T01:19:51.468Z,87.40
2022-10-28T01:22:25.810Z,87.32
2022-10-28T01:25:03.776Z,86.88
2022-10-28T01:27:53.117Z,86.94
2022-10-28T01:30:23.281Z,86.55
2022-10-28T01:33:18.951Z,86.66
2022-10-28T01:36:02.856Z,87.27
2022-10-28T01:38:54.560Z,87.77
2022-10-28T01:41:34.140Z,86.95
2022-10-28T01:44:14.288Z,88.09
2022-10-28T01:46:43.548Z,88.17
2022-10-28T01:49:30.628Z,88.28
2022-10-28T01:52:03.341Z,88.02
2022-10-28T01:54:34.018Z,87.18
2022-10-28T01:57:03.285Z,86.84
2022-10-28T01:59:30.772Z,86.12
2022-10-28T02:01:57.673Z,86.85
2022-10-28T02:04:24.264Z,86.73
2022-10-28T02:06:55.789Z,86.45
2022-10-28T02:09:30.003Z,86.52
2022-10-28T02:12:24.890Z,86.09
2022-10-28T02:15:09.576Z,86.43
2022-10-28T02:18:09.499Z,86.37
2022-10-28T02:20:58.998Z,86.73
2022-10-28T02:23:33.942Z,86.65
2022-10-28T02:26:00.398Z,87.35
2022-10-28T02:28:41.391Z,89.17
2022-10-28T02:31:20.640Z,91.13
2022-10-28T02:33:52.230Z,90.21
2022-10-28T02:36:22.108Z,89.69
2022-10-28T02:38:58.157Z,90.40
2022-10-28T02:41:37.272Z,89.40
2022-10-28T02:44:09.664Z,89.47
2022-10-28T02:46:38.773Z,89.82
2022-10-28T02:49:10.028Z,90.33
2022-10-28T02:51:45.049Z,89.03
2022-10-28T02:54:31.777Z,88.66
2022-10-28T02:57:06.787Z,89.11
2022-10-28T02:59:33.290Z,89.18
2022-10-28T03:01:59.891Z,88.74
2022-10-28T03:04:26.653Z,90.96
2022-10-28T03:06:53.121Z,93.54
2022-10-28T03:09:19.596Z,94.62
2022-10-28T03:11:46.061Z,92.57
2022-10-28T03:14:14.710Z,92.01
2022-10-28T03:16:42.236Z,92.30
2022-10-28T03:21:40.127Z,91.46
2022-10-28T03:24:06.982Z,92.91
2022-10-28T03:26:33.429Z,94.15
2022-10-28T03:28:59.911Z,92.91
2022-10-28T03:31:26.411Z,91.76
2022-10-28T03:33:52.888Z,91.30
2022-10-28T03:36:19.354Z,91.19
2022-10-28T03:38:45.778Z,91.18
2022-10-28T03:41:12.234Z,90.80
2022-10-28T03:43:38.663Z,90.86
2022-10-28T03:46:05.235Z,91.95
2022-10-28T03:48:31.698Z,92.22
2022-10-28T03:50:58.146Z,91.43
2022-10-28T03:53:27.586Z,91.38
2022-10-28T03:55:59.290Z,91.68
2022-10-28T03:58:26.268Z,91.66
2022-10-28T04:00:53.570Z,92.99
2022-10-28T04:03:21.852Z,94.03
2022-10-28T04:05:48.895Z,95.75
2022-10-28T04:08:16.764Z,96.12
2022-10-28T04:10:47.321Z,97.20
2022-10-28T04:13:14.709Z,96.85
2022-10-28T04:15:41.205Z,96.25
2022-10-28T04:18:08.051Z,95.79
2022-10-28T04:20:34.859Z,94.57
2022-10-28T04:23:01.683Z,93.92
2022-10-28T04:25:28.749Z,93.73
2022-10-28T04:27:55.670Z,93.06
2022-10-28T04:30:22.447Z,93.00
2022-10-28T04:32:48.862Z,92.41
2022-10-28T04:35:15.467Z,92.35
2022-10-28T04:37:41.923Z,92.88
2022-10-28T04:40:09.474Z,93.16
2022-10-28T04:42:35.926Z,92.76
2022-10-28T04:45:02.395Z,92.59
2022-10-28T04:47:28.887Z,92.23
2022-10-28T04:49:55.346Z,92.25
2022-10-28T04:52:21.791Z,92.53
2022-10-28T04:54:48.238Z,93.37
2022-10-28T04:57:14.716Z,94.34
2022-10-28T04:59:41.204Z,93.52
2022-10-28T05:02:07.860Z,93.40
2022-10-28T05:04:34.400Z,92.88
2022-10-28T05:07:00.898Z,92.83
2022-10-28T05:09:27.342Z,92.63
2022-10-28T05:11:54.382Z,93.17
2022-10-28T05:14:20.881Z,93.86
2022-10-28T05:16:48.076Z,93.84
2022-10-28T05:19:14.587Z,93.99
2022-10-28T05:21:41.004Z,94.91
2022-10-28T05:24:07.633Z,93.67
2022-10-28T05:26:34.116Z,93.41
2022-10-28T05:29:00.603Z,95.53
2022-10-28T05:31:27.071Z,95.77
2022-10-28T05:33:53.548Z,96.16
2022-10-28T05:36:20.078Z,97.30
2022-10-28T05:38:46.553Z,97.29
2022-10-28T05:41:13.074Z,95.72
2022-10-28T05:43:39.582Z,97.20
2022-10-28T05:46:06.128Z,96.69
2022-10-28T05:48:32.585Z,95.95
2022-10-28T05:50:59.033Z,95.43
2022-10-28T05:53:25.470Z,94.76
2022-10-28T05:55:51.887Z,94.76
2022-10-28T05:58:18.339Z,95.21
2022-10-28T06:00:44.870Z,95.27
2022-10-28T06:03:12.312Z,94.52
2022-10-28T06:05:45.956Z,94.30
2022-10-28T06:08:13.365Z,96.18
2022-10-28T06:10:40.894Z,96.27
2022-10-28T06:13:07.422Z,96.97
2022-10-28T06:15:34.058Z,96.68
2022-10-28T06:18:00.493Z,95.96
2022-10-28T06:20:26.943Z,95.58
2022-10-28T06:22:55.492Z,94.86
2022-10-28T06:25:23.936Z,94.57
2022-10-28T06:27:58.549Z,93.93
2022-10-28T06:30:26.427Z,93.34
2022-10-28T06:32:56.354Z,93.31
2022-10-28T06:35:22.979Z,93.22
2022-10-28T06:37:56.152Z,93.08
2022-10-28T06:40:25.086Z,92.83
2022-10-28T06:43:04.710Z,92.58
2022-10-28T06:45:32.932Z,91.98
2022-10-28T06:48:04.298Z,92.12
2022-10-28T06:50:31.312Z,91.66
2022-10-28T06:52:58.640Z,91.40
2022-10-28T06:55:26.210Z,90.99
2022-10-28T06:57:53.390Z,90.93
2022-10-28T07:00:20.199Z,90.69
2022-10-28T07:02:51.236Z,90.29
2022-10-28T07:05:17.774Z,90.32
2022-10-28T07:07:44.228Z,90.14
2022-10-28T07:10:10.729Z,89.86
2022-10-28T07:12:37.459Z,89.64
2022-10-28T07:15:04.477Z,88.83
2022-10-28T07:17:30.938Z,88.77
2022-10-28T07:19:57.423Z,87.92
2022-10-28T07:22:25.749Z,88.14
2022-10-28T07:24:52.363Z,87.65
2022-10-28T07:27:19.013Z,86.87
2022-10-28T07:29:45.395Z,86.59
2022-10-28T07:32:11.880Z,86.30
2022-10-28T07:34:38.363Z,85.84
2022-10-28T07:37:05.976Z,85.96
2022-10-28T07:39:32.602Z,85.50
2022-10-28T07:42:01.160Z,85.02
2022-10-28T07:44:27.706Z,84.67
2022-10-28T07:46:57.219Z,84.04
2022-10-28T07:49:25.197Z,84.40
2022-10-28T07:51:51.764Z,84.26
2022-10-28T07:54:18.263Z,83.60
2022-10-28T07:56:44.910Z,83.86
2022-10-28T07:59:11.576Z,82.88
2022-10-28T08:01:38.238Z,82.56
2022-10-28T08:04:04.954Z,82.49
2022-10-28T08:06:31.739Z,82.31
2022-10-28T08:08:58.215Z,83.00
2022-10-28T08:11:24.832Z,83.43
2022-10-28T08:13:52.376Z,83.48
2022-10-28T08:16:19.903Z,83.84
2022-10-28T08:18:46.515Z,84.14
2022-10-28T08:21:14.182Z,84.26
2022-10-28T08:23:41.718Z,84.43
2022-10-28T08:26:08.439Z,83.90
2022-10-28T08:28:34.887Z,83.29
2022-10-28T08:31:08.590Z,82.99
2022-10-28T08:33:38.042Z,82.84
2022-10-28T08:36:05.751Z,82.14
2022-10-28T08:38:32.384Z,80.14
2022-10-28T08:41:18.042Z,79.95
2022-10-28T08:43:57.889Z,79.86
2022-10-28T08:46:43.269Z,78.83
2022-10-28T08:49:14.287Z,78.28
2022-10-28T08:52:00.789Z,75.55
2022-10-28T08:54:30.019Z,74.32
2022-10-28T08:57:00.612Z,73.05
2022-10-28T08:59:36.886Z,73.01
2022-10-28T09:02:11.779Z,72.10
2022-10-28T09:04:39.641Z,72.13
2022-10-28T09:07:10.699Z,71.01
2022-10-28T09:09:38.425Z,69.84
2022-10-28T09:12:11.122Z,70.73
2022-10-28T09:14:53.048Z,69.87
2022-10-28T09:17:25.574Z,68.37
2022-10-28T09:20:19.021Z,67.38
2022-10-28T09:22:54.819Z,67.53
2022-10-28T09:25:31.976Z,65.88
2022-10-28T09:28:04.541Z,66.29
2022-10-28T09:30:46.556Z,66.34
2022-10-28T09:33:34.359Z,65.13
2022-10-28T09:36:03.068Z,64.79
2022-10-28T09:38:39.924Z,63.83
2022-10-28T09:41:21.626Z,63.88
2022-10-28T09:44:13.806Z,63.18
2022-10-28T09:46:40.814Z,63.99
2022-10-28T09:49:17.902Z,62.44
2022-10-28T09:51:52.703Z,63.16
2022-10-28T09:54:49.173Z,62.61
2022-10-28T09:57:17.425Z,62.75
2022-10-28T09:59:44.716Z,63.58
2022-10-28T10:02:32.591Z,63.58
2022-10-28T10:05:01.638Z,64.19
2022-10-28T10:08:07.276Z,65.05
2022-10-28T10:10:44.752Z,65.44
2022-10-28T10:13:13.391Z,66.29
2022-10-28T10:15:45.690Z,65.11
2022-10-28T10:18:42.222Z,64.32
2022-10-28T10:21:08.725Z,64.47
2022-10-28T10:23:37.414Z,64.49
2022-10-28T10:26:14.510Z,63.76
2022-10-28T10:28:51.564Z,63.42
2022-10-28T10:31:27.285Z,62.75
2022-10-28T10:33:57.329Z,62.56
2022-10-28T10:36:28.243Z,62.83
2022-10-28T10:38:57.380Z,63.29
2022-10-28T10:41:44.516Z,62.22
2022-10-28T10:44:23.163Z,62.23
2022-10-28T10:47:06.450Z,62.00
2022-10-28T10:49:35.036Z,62.05
2022-10-28T10:52:15.627Z,62.26
2022-10-28T10:54:56.055Z,60.54
2022-10-28T10:57:24.483Z,62.18
2022-10-28T10:59:53.493Z,61.37
2022-10-28T11:02:22.938Z,61.82
2022-10-28T11:04:52.221Z,61.63
2022-10-28T11:07:18.696Z,60.35
2022-10-28T11:09:48.915Z,60.23
2022-10-28T11:12:28.388Z,58.86
2022-10-28T11:15:00.579Z,60.34
2022-10-28T11:17:36.273Z,57.02
2022-10-28T11:20:24.986Z,56.31
2022-10-28T11:23:10.222Z,55.49
2022-10-28T11:25:50.570Z,55.54
2022-10-28T11:28:16.961Z,59.56
2022-10-28T11:31:22.509Z,55.35
2022-10-28T11:33:55.329Z,57.99
2022-10-28T11:36:37.307Z,55.26
2022-10-28T11:39:20.251Z,53.62
2022-10-28T11:41:49.404Z,50.60
2022-10-28T11:44:31.163Z,52.18
2022-10-28T11:47:16.336Z,50.21
2022-10-28T11:50:08.407Z,49.04
2022-10-28T11:52:45.295Z,48.24
2022-10-28T11:55:22.133Z,47.59
2022-10-28T11:58:08.535Z,49.27
2022-10-28T12:00:50.103Z,50.01
2022-10-28T12:03:27.952Z,45.58
2022-10-28T12:06:22.154Z,45.75
2022-10-28T12:09:37.047Z,46.27
2022-10-28T12:12:29.626Z,46.71
2022-10-28T12:15:17.188Z,44.25
2022-10-28T12:17:59.044Z,46.05
2022-10-28T12:20:38.945Z,45.17
2022-10-28T12:23:15.154Z,43.74
2022-10-28T12:25:45.043Z,44.18
2022-10-28T12:28:33.894Z,44.63
2022-10-28T12:31:02.836Z,45.73
2022-10-28T12:33:39.805Z,45.18
2022-10-28T12:36:09.036Z,44.17
2022-10-28T12:38:58.602Z,44.30
2022-10-28T12:41:27.801Z,43.30
2022-10-28T12:44:09.409Z,44.63
2022-10-28T12:47:03.219Z,44.83
2022-10-28T12:49:44.963Z,43.69
2022-10-28T12:52:24.873Z,43.91
2022-10-28T12:55:03.419Z,43.88
2022-10-28T12:57:34.192Z,45.87
2022-10-28T13:00:15.915Z,45.28
2022-10-28T13:03:01.447Z,44.18
2022-10-28T13:05:37.289Z,45.47
2022-10-28T13:08:16.939Z,47.56
2022-10-28T13:10:57.621Z,46.23
2022-10-28T13:13:47.913Z,44.99
2022-10-28T13:16:20.038Z,46.38
2022-10-28T13:19:20.639Z,44.53
2022-10-28T13:21:54.041Z,44.37
2022-10-28T13:24:40.269Z,45.55
2022-10-28T13:27:13.364Z,45.39
2022-10-28T13:29:43.135Z,46.11
2022-10-28T13:32:38.655Z,47.15
2022-10-28T13:35:26.423Z,46.94
2022-10-28T13:37:55.223Z,47.24
2022-10-28T13:40:30.945Z,47.09
2022-10-28T13:43:01.642Z,47.21
2022-10-28T13:45:50.381Z,47.25
2022-10-28T13:48:28.823Z,47.40
2022-10-28T13:51:15.486Z,47.76
2022-10-28T13:53:45.002Z,48.06
2022-10-28T13:56:16.793Z,48.82
2022-10-28T13:58:54.922Z,48.66
2022-10-28T14:02:28.461Z,49.11
2022-10-28T14:04:55.763Z,49.16
2022-10-28T14:07:27.889Z,49.42
2022-10-28T14:09:58.659Z,49.38
2022-10-28T14:12:30.017Z,49.37
2022-10-28T14:15:01.788Z,49.84
2022-10-28T14:17:53.565Z,50.10
2022-10-28T14:20:26.383Z,50.50
2022-10-28T14:22:54.274Z,51.25
2022-10-28T14:25:43.778Z,51.00
2022-10-28T14:28:31.580Z,51.00
2022-10-28T14:31:13.220Z,51.32
2022-10-28T14:33:42.685Z,51.64
2022-10-28T14:36:34.218Z,51.45
2022-10-28T14:39:03.824Z,52.61
2022-10-28T14:41:51.924Z,52.70
2022-10-28T14:45:05.575Z,52.51
2022-10-28T14:48:09.786Z,52.38
2022-10-28T14:50:48.797Z,53.18
2022-10-28T14:53:35.799Z,53.03
2022-10-28T14:56:09.537Z,53.58
2022-10-28T14:58:44.461Z,53.90
2022-10-28T15:01:16.963Z,53.46
2022-10-28T15:03:56.699Z,53.16
2022-10-28T15:06:37.190Z,53.52
2022-10-28T15:09:25.649Z,54.03
2022-10-28T15:12:05.622Z,54.05
2022-10-28T15:14:40.559Z,54.13
2022-10-28T15:17:39.320Z,54.61
2022-10-28T15:20:25.889Z,54.30
2022-10-28T15:22:54.364Z,54.74
2022-10-28T15:25:22.550Z,55.36
2022-10-28T15:30:23.612Z,56.00
2022-10-28T15:32:51.556Z,55.94
2022-10-28T15:35:27.195Z,56.21
2022-10-28T15:38:00.304Z,56.60
2022-10-28T15:40:35.289Z,56.70
2022-10-28T15:43:03.593Z,56.56
2022-10-28T15:45:32.868Z,56.82
2022-10-28T15:48:01.638Z,57.14
2022-10-28T15:50:30.314Z,57.02
2022-10-28T15:53:12.492Z,57.88
2022-10-28T15:58:32.751Z,58.93
2022-10-28T16:00:59.422Z,58.94
2022-10-28T16:03:42.370Z,59.05
2022-10-28T16:06:31.748Z,59.77
2022-10-28T16:09:04.920Z,59.87
2022-10-28T16:11:33.622Z,59.53
2022-10-28T16:14:03.516Z,59.84
2022-10-28T16:16:30.874Z,59.71
2022-10-28T16:19:07.962Z,60.69
2022-10-28T16:21:35.988Z,60.23
2022-10-28T16:24:02.974Z,60.14
2022-10-28T16:26:31.624Z,60.64
2022-10-28T16:28:58.091Z,60.62
2022-10-28T16:31:28.513Z,60.93
2022-10-28T16:33:55.132Z,61.59
2022-10-28T16:36:21.596Z,60.69
2022-10-28T16:38:48.073Z,60.68
2022-10-28T16:41:17.404Z,61.29
2022-10-28T16:43:44.403Z,61.94
2022-10-28T16:46:12.623Z,61.24
2022-10-28T16:48:39.612Z,61.79
2022-10-28T16:51:12.697Z,61.29
2022-10-28T16:53:39.377Z,61.47
2022-10-28T16:56:08.665Z,61.60
2022-10-28T16:58:39.995Z,61.71
2022-10-28T17:01:06.542Z,62.55
2022-10-28T17:03:33.154Z,62.31
2022-10-28T17:05:59.605Z,62.30
2022-10-28T17:08:48.897Z,62.51
2022-10-28T17:11:16.225Z,62.89
2022-10-28T17:13:42.769Z,62.00
2022-10-28T17:16:09.241Z,63.48
2022-10-28T17:18:35.754Z,63.24
2022-10-28T17:21:03.437Z,62.29
2022-10-28T17:23:29.958Z,62.85
2022-10-28T17:26:01.146Z,63.43
2022-10-28T17:28:27.641Z,63.98
2022-10-28T17:30:54.143Z,64.43
2022-10-28T17:33:20.717Z,64.56
2022-10-28T17:35:47.215Z,65.25
2022-10-28T17:38:13.690Z,65.89
2022-10-28T17:40:40.181Z,66.46
2022-10-28T17:43:06.647Z,66.51
2022-10-28T17:45:33.268Z,66.97
2022-10-28T17:47:59.949Z,67.30
2022-10-28T17:50:26.520Z,67.93
2022-10-28T17:52:53.505Z,68.26
2022-10-28T17:55:20.245Z,68.44
2022-10-28T17:57:47.232Z,68.67
2022-10-28T18:00:14.503Z,68.78
2022-10-28T18:02:41.169Z,68.72
2022-10-28T18:05:08.158Z,69.64
2022-10-28T18:07:34.740Z,69.91
2022-10-28T18:10:01.231Z,70.61
2022-10-28T18:12:27.715Z,70.22
2022-10-28T18:14:54.189Z,70.51
2022-10-28T18:17:20.692Z,72.96
2022-10-28T18:19:47.226Z,71.92
2022-10-28T18:22:13.757Z,71.16
2022-10-28T18:24:40.439Z,71.86
2022-10-28T18:27:06.933Z,71.92
2022-10-28T18:29:33.483Z,73.04
2022-10-28T18:32:04.033Z,73.23
2022-10-28T18:34:31.490Z,72.90
2022-10-28T18:36:58.117Z,72.63
2022-10-28T18:39:24.674Z,72.46
2022-10-28T18:41:51.467Z,73.19
2022-10-28T18:44:21.561Z,73.69
2022-10-28T18:46:48.150Z,74.44
2022-10-28T18:49:14.661Z,74.04
2022-10-28T18:51:41.124Z,73.97
2022-10-28T18:54:07.664Z,74.05
2022-10-28T18:56:34.354Z,75.56
2022-10-28T18:59:03.383Z,77.76
2022-10-28T19:01:31.630Z,76.09
2022-10-28T19:04:00.879Z,75.86
2022-10-28T19:06:32.039Z,76.00
2022-10-28T19:09:01.080Z,75.84
2022-10-28T19:11:30.263Z,75.22
2022-10-28T19:14:01.332Z,76.52
2022-10-28T19:16:28.790Z,76.24
2022-10-28T19:18:59.468Z,77.97
2022-10-28T19:21:27.514Z,76.73
2022-10-28T19:23:54.323Z,77.90
2022-10-28T19:26:22.858Z,77.55
2022-10-28T19:28:50.284Z,76.74
2022-10-28T19:31:19.326Z,77.33
2022-10-28T19:33:46.179Z,77.02
2022-10-28T19:36:24.384Z,77.02
2022-10-28T19:38:53.656Z,76.67
2022-10-28T19:41:23.254Z,77.36
2022-10-28T19:43:58.304Z,76.87
2022-10-28T19:46:26.680Z,77.05
2022-10-28T19:48:55.735Z,78.07
2022-10-28T19:51:28.067Z,78.98
2022-10-28T19:53:57.040Z,78.80
2022-10-28T19:56:24.353Z,80.25
2022-10-28T19:58:53.357Z,78.66
2022-10-28T20:01:24.800Z,79.57
2022-10-28T20:03:52.356Z,80.65
2022-10-28T20:06:21.033Z,78.83
2022-10-28T20:08:49.331Z,79.08
2022-10-28T20:11:24.771Z,79.52
2022-10-28T20:13:58.024Z,79.31
2022-10-28T20:16:25.760Z,80.20
2022-10-28T20:18:54.170Z,80.03
2022-10-28T20:21:21.919Z,79.34
2022-10-28T20:26:17.835Z,79.37
2022-10-28T20:28:44.272Z,79.45
2022-10-28T20:31:13.790Z,81.28
2022-10-28T20:33:42.474Z,79.51
2022-10-28T20:36:28.578Z,81.94
2022-10-28T20:38:57.255Z,79.38
2022-10-28T20:41:24.780Z,79.25
2022-10-28T20:43:52.466Z,79.07
2022-10-28T20:46:20.375Z,79.38
2022-10-28T20:48:47.381Z,79.39
2022-10-28T20:51:13.915Z,79.43
2022-10-28T20:53:40.546Z,79.29
2022-10-28T20:56:08.040Z,79.04
2022-10-28T20:58:35.445Z,79.52
2022-10-28T21:01:12.956Z,79.37
2022-10-28T21:03:42.145Z,79.67
2022-10-28T21:06:08.944Z,79.38
2022-10-28T21:08:35.897Z,80.93
2022-10-28T21:11:06.637Z,80.26
2022-10-28T21:13:33.585Z,80.28
2022-10-28T21:16:04.707Z,80.15
2022-10-28T21:18:31.603Z,80.31
2022-10-28T21:20:59.790Z,80.46
2022-10-28T21:23:28.110Z,81.01
2022-10-28T21:26:02.461Z,80.71
2022-10-28T21:28:30.472Z,81.39
2022-10-28T21:31:18.035Z,82.30
2022-10-28T21:33:45.249Z,80.84
2022-10-28T21:36:17.579Z,82.17
2022-10-28T21:38:44.475Z,81.17
2022-10-28T21:41:16.250Z,82.34
2022-10-28T21:43:44.643Z,83.19
2022-10-28T21:46:11.631Z,82.93
2022-10-28T21:48:38.268Z,82.96
2022-10-28T21:51:10.119Z,83.13
2022-10-28T21:53:40.472Z,82.46
2022-10-28T21:56:19.465Z,83.47
2022-10-28T21:58:47.841Z,85.30
2022-10-28T22:01:20.616Z,85.11
2022-10-28T22:03:47.272Z,83.53
2022-10-28T22:06:13.988Z,83.18
2022-10-28T22:08:40.591Z,83.79
2022-10-28T22:11:11.506Z,83.90
2022-10-28T22:13:38.349Z,83.73
2022-10-28T22:16:07.584Z,83.40
2022-10-28T22:18:36.631Z,83.63
2022-10-28T22:21:07.111Z,85.29
2022-10-28T22:23:34.177Z,83.92
2022-10-28T22:26:02.233Z,83.59
2022-10-28T22:28:28.812Z,83.72
2022-10-28T22:31:02.894Z,85.75
2022-10-28T22:33:29.333Z,85.04
2022-10-28T22:36:07.436Z,85.10
2022-10-28T22:38:33.959Z,84.58
2022-10-28T22:41:04.403Z,84.75
2022-10-28T22:43:31.024Z,84.33
2022-10-28T22:46:01.218Z,85.59
2022-10-28T22:48:28.094Z,84.62
2022-10-28T22:50:55.238Z,84.48
2022-10-28T22:53:21.887Z,84.71
2022-10-28T22:55:48.630Z,85.21
2022-10-28T22:58:17.840Z,84.74
2022-10-28T23:00:45.020Z,84.08
2022-10-28T23:03:12.359Z,84.28
2022-10-28T23:05:39.723Z,84.13
2022-10-28T23:08:07.051Z,84.30
2022-10-28T23:10:33.872Z,84.63
2022-10-28T23:13:02.115Z,84.68
2022-10-28T23:15:30.225Z,84.43
2022-10-28T23:17:57.277Z,84.17
2022-10-28T23:20:25.150Z,84.95
2022-10-28T23:22:55.273Z,85.30
2022-10-28T23:25:21.684Z,85.10
2022-10-28T23:27:48.117Z,85.54
2022-10-28T23:30:14.588Z,86.51
2022-10-28T23:32:41.031Z,85.55
2022-10-28T23:35:07.790Z,85.34
2022-10-28T23:37:34.309Z,85.45
2022-10-28T23:40:00.870Z,85.23
2022-10-28T23:42:28.118Z,85.08
2022-10-28T23:44:54.504Z,85.06
2022-10-28T23:47:21.013Z,85.26
2022-10-28T23:49:47.478Z,85.63
2022-10-28T23:52:13.975Z,86.91
2022-10-28T23:54:40.408Z,85.84
2022-10-28T23:57:08.375Z,86.45
2022-10-28T23:59:34.989Z,86.60
